sensor_id;sensor_type;location;lat;lon;timestamp;P1;durP1;ratioP1;P2;durP2;ratioP2
58294;SDS011;45705;55.592;37.460;2023-07-31T00:01:28;9.18;;;5.03;;
58294;SDS011;45705;55.592;37.460;2023-07-31T00:03:54;11.75;;;6.35;;
58294;SDS011;45705;55.592;37.460;2023-07-31T00:06:20;10.75;;;6.10;;
58294;SDS011;45705;55.592;37.460;2023-07-31T00:08:45;11.23;;;5.50;;
58294;SDS011;45705;55.592;37.460;2023-07-31T00:11:11;16.65;;;6.10;;
58294;SDS011;45705;55.592;37.460;2023-07-31T00:13:37;9.50;;;5.68;;
58294;SDS011;45705;55.592;37.460;2023-07-31T00:16:03;12.63;;;5.93;;
58294;SDS011;45705;55.592;37.460;2023-07-31T00:18:29;10.52;;;5.70;;
58294;SDS011;45705;55.592;37.460;2023-07-31T00:20:55;12.73;;;6.05;;
58294;SDS011;45705;55.592;37.460;2023-07-31T00:23:20;8.63;;;5.35;;
58294;SDS011;45705;55.592;37.460;2023-07-31T00:25:46;14.32;;;7.85;;
58294;SDS011;45705;55.592;37.460;2023-07-31T00:28:12;12.82;;;6.70;;
58294;SDS011;45705;55.592;37.460;2023-07-31T00:30:38;8.45;;;5.40;;
58294;SDS011;45705;55.592;37.460;2023-07-31T00:33:04;12.68;;;5.70;;
58294;SDS011;45705;55.592;37.460;2023-07-31T00:35:29;10.48;;;6.25;;
58294;SDS011;45705;55.592;37.460;2023-07-31T00:37:56;12.65;;;6.03;;
58294;SDS011;45705;55.592;37.460;2023-07-31T00:40:23;8.55;;;5.75;;
58294;SDS011;45705;55.592;37.460;2023-07-31T00:42:48;9.10;;;5.95;;
58294;SDS011;45705;55.592;37.460;2023-07-31T00:45:14;10.27;;;5.53;;
58294;SDS011;45705;55.592;37.460;2023-07-31T00:47:40;9.18;;;6.07;;
58294;SDS011;45705;55.592;37.460;2023-07-31T00:50:06;10.90;;;6.60;;
58294;SDS011;45705;55.592;37.460;2023-07-31T00:52:33;11.30;;;5.32;;
58294;SDS011;45705;55.592;37.460;2023-07-31T00:54:59;14.57;;;5.68;;
58294;SDS011;45705;55.592;37.460;2023-07-31T00:57:25;12.05;;;6.28;;
58294;SDS011;45705;55.592;37.460;2023-07-31T00:59:51;10.27;;;5.85;;
58294;SDS011;45705;55.592;37.460;2023-07-31T01:02:17;17.85;;;6.55;;
58294;SDS011;45705;55.592;37.460;2023-07-31T01:04:43;10.93;;;6.15;;
58294;SDS011;45705;55.592;37.460;2023-07-31T01:10:11;11.35;;;6.55;;
58294;SDS011;45705;55.592;37.460;2023-07-31T01:12:42;10.93;;;5.75;;
58294;SDS011;45705;55.592;37.460;2023-07-31T01:15:11;11.18;;;6.22;;
58294;SDS011;45705;55.592;37.460;2023-07-31T01:17:39;9.55;;;6.63;;
58294;SDS011;45705;55.592;37.460;2023-07-31T01:20:08;10.20;;;6.22;;
58294;SDS011;45705;55.592;37.460;2023-07-31T01:31:22;12.60;;;6.05;;
58294;SDS011;45705;55.592;37.460;2023-07-31T01:33:50;10.88;;;6.50;;
58294;SDS011;45705;55.592;37.460;2023-07-31T01:36:20;14.80;;;6.28;;
58294;SDS011;45705;55.592;37.460;2023-07-31T01:38:46;14.68;;;6.10;;
58294;SDS011;45705;55.592;37.460;2023-07-31T01:41:12;11.13;;;6.15;;
58294;SDS011;45705;55.592;37.460;2023-07-31T01:43:39;12.15;;;6.32;;
58294;SDS011;45705;55.592;37.460;2023-07-31T01:46:05;10.65;;;6.32;;
58294;SDS011;45705;55.592;37.460;2023-07-31T01:48:31;11.30;;;6.13;;
58294;SDS011;45705;55.592;37.460;2023-07-31T01:51:01;18.92;;;6.30;;
58294;SDS011;45705;55.592;37.460;2023-07-31T01:53:28;11.60;;;5.93;;
58294;SDS011;45705;55.592;37.460;2023-07-31T01:55:54;15.05;;;5.93;;
58294;SDS011;45705;55.592;37.460;2023-07-31T01:58:20;10.18;;;6.07;;
58294;SDS011;45705;55.592;37.460;2023-07-31T02:00:46;7.68;;;5.80;;
58294;SDS011;45705;55.592;37.460;2023-07-31T02:03:12;11.02;;;5.95;;
58294;SDS011;45705;55.592;37.460;2023-07-31T02:05:44;14.75;;;6.22;;
58294;SDS011;45705;55.592;37.460;2023-07-31T02:08:14;13.35;;;6.20;;
58294;SDS011;45705;55.592;37.460;2023-07-31T02:10:40;9.70;;;5.95;;
58294;SDS011;45705;55.592;37.460;2023-07-31T02:13:06;12.20;;;5.93;;
58294;SDS011;45705;55.592;37.460;2023-07-31T02:15:33;11.40;;;6.35;;
58294;SDS011;45705;55.592;37.460;2023-07-31T02:17:59;12.82;;;6.38;;
58294;SDS011;45705;55.592;37.460;2023-07-31T02:20:25;10.93;;;6.55;;
58294;SDS011;45705;55.592;37.460;2023-07-31T02:22:51;8.73;;;6.00;;
58294;SDS011;45705;55.592;37.460;2023-07-31T02:25:17;13.75;;;6.30;;
58294;SDS011;45705;55.592;37.460;2023-07-31T02:27:46;12.55;;;6.38;;
58294;SDS011;45705;55.592;37.460;2023-07-31T02:30:14;8.07;;;6.20;;
58294;SDS011;45705;55.592;37.460;2023-07-31T02:32:40;10.48;;;5.72;;
58294;SDS011;45705;55.592;37.460;2023-07-31T02:35:06;12.60;;;5.88;;
58294;SDS011;45705;55.592;37.460;2023-07-31T02:37:33;10.90;;;6.03;;
58294;SDS011;45705;55.592;37.460;2023-07-31T02:39:59;11.45;;;6.80;;
58294;SDS011;45705;55.592;37.460;2023-07-31T02:42:31;10.07;;;6.45;;
58294;SDS011;45705;55.592;37.460;2023-07-31T02:44:57;12.82;;;6.47;;
58294;SDS011;45705;55.592;37.460;2023-07-31T02:47:23;13.60;;;6.60;;
58294;SDS011;45705;55.592;37.460;2023-07-31T02:49:50;11.57;;;6.35;;
58294;SDS011;45705;55.592;37.460;2023-07-31T02:52:17;11.50;;;6.30;;
58294;SDS011;45705;55.592;37.460;2023-07-31T02:54:43;7.95;;;6.22;;
58294;SDS011;45705;55.592;37.460;2023-07-31T02:57:09;8.95;;;6.22;;
58294;SDS011;45705;55.592;37.460;2023-07-31T02:59:35;9.48;;;6.75;;
58294;SDS011;45705;55.592;37.460;2023-07-31T03:02:01;12.73;;;6.40;;
58294;SDS011;45705;55.592;37.460;2023-07-31T03:04:27;15.98;;;6.45;;
58294;SDS011;45705;55.592;37.460;2023-07-31T03:06:52;13.25;;;6.00;;
58294;SDS011;45705;55.592;37.460;2023-07-31T03:09:19;7.72;;;5.75;;
58294;SDS011;45705;55.592;37.460;2023-07-31T03:11:45;12.27;;;5.68;;
58294;SDS011;45705;55.592;37.460;2023-07-31T03:14:11;14.77;;;6.20;;
58294;SDS011;45705;55.592;37.460;2023-07-31T03:16:37;9.90;;;5.65;;
58294;SDS011;45705;55.592;37.460;2023-07-31T03:19:03;9.27;;;6.03;;
58294;SDS011;45705;55.592;37.460;2023-07-31T03:21:29;9.90;;;5.10;;
58294;SDS011;45705;55.592;37.460;2023-07-31T03:23:55;10.27;;;5.65;;
58294;SDS011;45705;55.592;37.460;2023-07-31T03:26:21;7.45;;;5.22;;
58294;SDS011;45705;55.592;37.460;2023-07-31T03:28:48;10.23;;;5.72;;
58294;SDS011;45705;55.592;37.460;2023-07-31T03:31:15;12.32;;;6.75;;
58294;SDS011;45705;55.592;37.460;2023-07-31T03:33:41;9.88;;;6.32;;
58294;SDS011;45705;55.592;37.460;2023-07-31T03:36:06;8.23;;;5.40;;
58294;SDS011;45705;55.592;37.460;2023-07-31T03:38:33;8.00;;;5.28;;
58294;SDS011;45705;55.592;37.460;2023-07-31T03:41:00;9.55;;;4.72;;
58294;SDS011;45705;55.592;37.460;2023-07-31T03:43:27;6.63;;;4.68;;
58294;SDS011;45705;55.592;37.460;2023-07-31T03:45:53;7.28;;;4.60;;
58294;SDS011;45705;55.592;37.460;2023-07-31T03:48:19;10.20;;;4.30;;
58294;SDS011;45705;55.592;37.460;2023-07-31T03:50:45;16.67;;;4.57;;
58294;SDS011;45705;55.592;37.460;2023-07-31T03:53:11;8.90;;;4.40;;
58294;SDS011;45705;55.592;37.460;2023-07-31T03:55:37;11.25;;;4.70;;
58294;SDS011;45705;55.592;37.460;2023-07-31T03:58:03;10.60;;;4.53;;
58294;SDS011;45705;55.592;37.460;2023-07-31T04:00:29;10.15;;;4.60;;
58294;SDS011;45705;55.592;37.460;2023-07-31T04:02:55;6.63;;;4.20;;
58294;SDS011;45705;55.592;37.460;2023-07-31T04:05:21;13.43;;;4.40;;
58294;SDS011;45705;55.592;37.460;2023-07-31T04:07:47;10.65;;;4.90;;
58294;SDS011;45705;55.592;37.460;2023-07-31T04:10:13;9.80;;;4.18;;
58294;SDS011;45705;55.592;37.460;2023-07-31T04:12:38;7.50;;;4.05;;
58294;SDS011;45705;55.592;37.460;2023-07-31T04:15:04;5.25;;;3.80;;
58294;SDS011;45705;55.592;37.460;2023-07-31T04:17:32;8.60;;;4.07;;
58294;SDS011;45705;55.592;37.460;2023-07-31T04:19:58;9.65;;;3.92;;
58294;SDS011;45705;55.592;37.460;2023-07-31T04:22:24;9.98;;;4.03;;
58294;SDS011;45705;55.592;37.460;2023-07-31T04:24:50;6.47;;;3.75;;
58294;SDS011;45705;55.592;37.460;2023-07-31T04:27:16;7.68;;;3.63;;
58294;SDS011;45705;55.592;37.460;2023-07-31T04:29:41;5.00;;;3.60;;
58294;SDS011;45705;55.592;37.460;2023-07-31T04:32:09;9.13;;;4.38;;
58294;SDS011;45705;55.592;37.460;2023-07-31T04:34:35;8.10;;;4.47;;
58294;SDS011;45705;55.592;37.460;2023-07-31T04:37:01;7.47;;;4.00;;
58294;SDS011;45705;55.592;37.460;2023-07-31T04:39:27;7.63;;;3.65;;
58294;SDS011;45705;55.592;37.460;2023-07-31T04:41:52;6.55;;;3.67;;
58294;SDS011;45705;55.592;37.460;2023-07-31T04:44:18;6.13;;;3.67;;
58294;SDS011;45705;55.592;37.460;2023-07-31T04:46:44;7.25;;;3.60;;
58294;SDS011;45705;55.592;37.460;2023-07-31T04:49:10;6.65;;;3.92;;
58294;SDS011;45705;55.592;37.460;2023-07-31T04:51:37;8.00;;;2.97;;
58294;SDS011;45705;55.592;37.460;2023-07-31T04:54:03;5.15;;;2.63;;
58294;SDS011;45705;55.592;37.460;2023-07-31T04:56:28;7.60;;;3.17;;
58294;SDS011;45705;55.592;37.460;2023-07-31T04:58:54;3.53;;;2.63;;
58294;SDS011;45705;55.592;37.460;2023-07-31T05:01:20;6.22;;;2.72;;
58294;SDS011;45705;55.592;37.460;2023-07-31T05:03:46;5.88;;;2.85;;
58294;SDS011;45705;55.592;37.460;2023-07-31T05:06:12;6.65;;;2.95;;
58294;SDS011;45705;55.592;37.460;2023-07-31T05:08:39;4.00;;;3.33;;
58294;SDS011;45705;55.592;37.460;2023-07-31T05:11:05;6.55;;;3.08;;
58294;SDS011;45705;55.592;37.460;2023-07-31T05:13:31;4.55;;;3.10;;
58294;SDS011;45705;55.592;37.460;2023-07-31T05:15:56;5.65;;;2.90;;
58294;SDS011;45705;55.592;37.460;2023-07-31T05:18:22;9.82;;;3.10;;
58294;SDS011;45705;55.592;37.460;2023-07-31T05:20:48;5.40;;;3.05;;
58294;SDS011;45705;55.592;37.460;2023-07-31T05:23:14;7.18;;;2.78;;
58294;SDS011;45705;55.592;37.460;2023-07-31T05:25:40;5.78;;;2.92;;
58294;SDS011;45705;55.592;37.460;2023-07-31T05:28:06;12.18;;;2.70;;
58294;SDS011;45705;55.592;37.460;2023-07-31T05:30:31;5.47;;;2.35;;
58294;SDS011;45705;55.592;37.460;2023-07-31T05:32:57;8.15;;;2.30;;
58294;SDS011;45705;55.592;37.460;2023-07-31T05:35:23;13.25;;;3.42;;
58294;SDS011;45705;55.592;37.460;2023-07-31T05:37:49;4.78;;;2.25;;
58294;SDS011;45705;55.592;37.460;2023-07-31T05:40:14;4.35;;;2.28;;
58294;SDS011;45705;55.592;37.460;2023-07-31T05:42:40;5.90;;;2.53;;
58294;SDS011;45705;55.592;37.460;2023-07-31T05:45:06;7.70;;;2.47;;
58294;SDS011;45705;55.592;37.460;2023-07-31T05:47:33;8.98;;;2.40;;
58294;SDS011;45705;55.592;37.460;2023-07-31T05:49:59;7.00;;;2.72;;
58294;SDS011;45705;55.592;37.460;2023-07-31T05:52:24;5.38;;;2.70;;
58294;SDS011;45705;55.592;37.460;2023-07-31T05:54:50;4.60;;;2.20;;
58294;SDS011;45705;55.592;37.460;2023-07-31T05:57:17;4.63;;;2.28;;
58294;SDS011;45705;55.592;37.460;2023-07-31T05:59:43;5.75;;;3.10;;
58294;SDS011;45705;55.592;37.460;2023-07-31T06:02:09;6.75;;;2.35;;
58294;SDS011;45705;55.592;37.460;2023-07-31T06:04:35;4.93;;;2.13;;
58294;SDS011;45705;55.592;37.460;2023-07-31T06:07:00;6.72;;;2.40;;
58294;SDS011;45705;55.592;37.460;2023-07-31T06:09:27;4.75;;;2.08;;
58294;SDS011;45705;55.592;37.460;2023-07-31T06:11:53;11.13;;;2.42;;
58294;SDS011;45705;55.592;37.460;2023-07-31T06:14:19;4.90;;;2.05;;
58294;SDS011;45705;55.592;37.460;2023-07-31T06:16:45;8.65;;;2.20;;
58294;SDS011;45705;55.592;37.460;2023-07-31T06:19:11;5.93;;;1.90;;
58294;SDS011;45705;55.592;37.460;2023-07-31T06:21:37;6.50;;;2.35;;
58294;SDS011;45705;55.592;37.460;2023-07-31T06:24:04;7.68;;;1.80;;
58294;SDS011;45705;55.592;37.460;2023-07-31T06:26:31;6.50;;;2.00;;
58294;SDS011;45705;55.592;37.460;2023-07-31T06:28:57;5.50;;;1.90;;
58294;SDS011;45705;55.592;37.460;2023-07-31T06:31:23;7.50;;;2.10;;
58294;SDS011;45705;55.592;37.460;2023-07-31T06:33:49;9.52;;;2.08;;
58294;SDS011;45705;55.592;37.460;2023-07-31T06:36:16;5.45;;;2.00;;
58294;SDS011;45705;55.592;37.460;2023-07-31T06:38:41;5.47;;;1.80;;
58294;SDS011;45705;55.592;37.460;2023-07-31T06:41:07;5.95;;;1.73;;
58294;SDS011;45705;55.592;37.460;2023-07-31T06:43:33;5.90;;;2.05;;
58294;SDS011;45705;55.592;37.460;2023-07-31T06:46:04;1.88;;;1.65;;
58294;SDS011;45705;55.592;37.460;2023-07-31T06:48:30;4.45;;;1.70;;
58294;SDS011;45705;55.592;37.460;2023-07-31T06:50:56;4.15;;;2.20;;
58294;SDS011;45705;55.592;37.460;2023-07-31T06:53:22;3.83;;;1.98;;
58294;SDS011;45705;55.592;37.460;2023-07-31T06:55:48;5.13;;;1.77;;
58294;SDS011;45705;55.592;37.460;2023-07-31T06:58:13;3.13;;;1.40;;
58294;SDS011;45705;55.592;37.460;2023-07-31T07:00:39;4.57;;;1.50;;
58294;SDS011;45705;55.592;37.460;2023-07-31T07:03:05;2.70;;;1.40;;
58294;SDS011;45705;55.592;37.460;2023-07-31T07:05:31;3.70;;;1.58;;
58294;SDS011;45705;55.592;37.460;2023-07-31T07:07:56;2.17;;;1.20;;
58294;SDS011;45705;55.592;37.460;2023-07-31T07:10:22;5.63;;;1.48;;
58294;SDS011;45705;55.592;37.460;2023-07-31T07:12:48;4.43;;;1.70;;
58294;SDS011;45705;55.592;37.460;2023-07-31T07:15:14;5.23;;;1.50;;
58294;SDS011;45705;55.592;37.460;2023-07-31T07:17:40;6.80;;;1.50;;
58294;SDS011;45705;55.592;37.460;2023-07-31T07:20:06;5.53;;;1.58;;
58294;SDS011;45705;55.592;37.460;2023-07-31T07:24:58;3.00;;;1.30;;
58294;SDS011;45705;55.592;37.460;2023-07-31T07:27:24;2.72;;;1.27;;
58294;SDS011;45705;55.592;37.460;2023-07-31T07:29:50;1.52;;;1.13;;
58294;SDS011;45705;55.592;37.460;2023-07-31T07:32:20;1.70;;;1.15;;
58294;SDS011;45705;55.592;37.460;2023-07-31T07:34:46;2.53;;;1.20;;
58294;SDS011;45705;55.592;37.460;2023-07-31T07:37:13;4.93;;;1.42;;
58294;SDS011;45705;55.592;37.460;2023-07-31T07:39:38;2.67;;;1.30;;
58294;SDS011;45705;55.592;37.460;2023-07-31T07:42:04;4.88;;;1.40;;
58294;SDS011;45705;55.592;37.460;2023-07-31T07:44:30;1.48;;;1.20;;
58294;SDS011;45705;55.592;37.460;2023-07-31T07:46:56;2.60;;;1.33;;
58294;SDS011;45705;55.592;37.460;2023-07-31T07:49:21;2.58;;;1.50;;
58294;SDS011;45705;55.592;37.460;2023-07-31T07:51:50;2.78;;;1.58;;
58294;SDS011;45705;55.592;37.460;2023-07-31T07:54:16;4.95;;;1.58;;
58294;SDS011;45705;55.592;37.460;2023-07-31T07:56:42;2.03;;;1.30;;
58294;SDS011;45705;55.592;37.460;2023-07-31T07:59:08;3.47;;;1.45;;
58294;SDS011;45705;55.592;37.460;2023-07-31T08:01:34;2.25;;;1.50;;
58294;SDS011;45705;55.592;37.460;2023-07-31T08:04:00;4.07;;;1.42;;
58294;SDS011;45705;55.592;37.460;2023-07-31T08:06:26;2.75;;;1.58;;
58294;SDS011;45705;55.592;37.460;2023-07-31T08:08:52;2.88;;;2.20;;
58294;SDS011;45705;55.592;37.460;2023-07-31T08:11:17;5.78;;;1.88;;
58294;SDS011;45705;55.592;37.460;2023-07-31T08:13:43;3.88;;;1.98;;
58294;SDS011;45705;55.592;37.460;2023-07-31T08:16:09;3.40;;;1.85;;
58294;SDS011;45705;55.592;37.460;2023-07-31T08:18:35;6.10;;;1.70;;
58294;SDS011;45705;55.592;37.460;2023-07-31T08:21:02;3.80;;;1.50;;
58294;SDS011;45705;55.592;37.460;2023-07-31T08:23:28;2.13;;;1.50;;
58294;SDS011;45705;55.592;37.460;2023-07-31T08:25:54;2.30;;;1.70;;
58294;SDS011;45705;55.592;37.460;2023-07-31T08:28:20;4.55;;;1.58;;
58294;SDS011;45705;55.592;37.460;2023-07-31T08:30:46;2.25;;;1.60;;
58294;SDS011;45705;55.592;37.460;2023-07-31T08:33:11;2.83;;;1.70;;
58294;SDS011;45705;55.592;37.460;2023-07-31T08:35:37;4.57;;;1.80;;
58294;SDS011;45705;55.592;37.460;2023-07-31T08:38:05;4.15;;;1.80;;
58294;SDS011;45705;55.592;37.460;2023-07-31T08:40:30;2.45;;;1.75;;
58294;SDS011;45705;55.592;37.460;2023-07-31T08:42:56;5.45;;;2.00;;
58294;SDS011;45705;55.592;37.460;2023-07-31T08:45:24;3.22;;;1.50;;
58294;SDS011;45705;55.592;37.460;2023-07-31T08:47:51;5.28;;;1.95;;
58294;SDS011;45705;55.592;37.460;2023-07-31T08:50:18;4.72;;;2.10;;
58294;SDS011;45705;55.592;37.460;2023-07-31T08:52:45;2.08;;;1.80;;
58294;SDS011;45705;55.592;37.460;2023-07-31T08:55:12;3.13;;;1.70;;
58294;SDS011;45705;55.592;37.460;2023-07-31T08:57:38;4.30;;;1.83;;
58294;SDS011;45705;55.592;37.460;2023-07-31T09:00:04;3.15;;;1.70;;
58294;SDS011;45705;55.592;37.460;2023-07-31T09:02:45;3.72;;;1.90;;
58294;SDS011;45705;55.592;37.460;2023-07-31T09:05:13;2.45;;;1.90;;
58294;SDS011;45705;55.592;37.460;2023-07-31T09:07:40;3.08;;;2.00;;
58294;SDS011;45705;55.592;37.460;2023-07-31T09:10:08;4.40;;;1.85;;
58294;SDS011;45705;55.592;37.460;2023-07-31T09:12:34;4.15;;;1.88;;
58294;SDS011;45705;55.592;37.460;2023-07-31T09:15:00;2.10;;;1.90;;
58294;SDS011;45705;55.592;37.460;2023-07-31T09:17:29;3.63;;;1.90;;
58294;SDS011;45705;55.592;37.460;2023-07-31T09:19:57;5.00;;;1.85;;
58294;SDS011;45705;55.592;37.460;2023-07-31T09:22:33;3.35;;;2.00;;
58294;SDS011;45705;55.592;37.460;2023-07-31T09:25:16;5.72;;;1.73;;
58294;SDS011;45705;55.592;37.460;2023-07-31T09:27:53;5.45;;;2.15;;
58294;SDS011;45705;55.592;37.460;2023-07-31T09:30:20;2.50;;;2.10;;
58294;SDS011;45705;55.592;37.460;2023-07-31T09:32:48;4.10;;;2.10;;
58294;SDS011;45705;55.592;37.460;2023-07-31T09:37:51;7.47;;;2.00;;
58294;SDS011;45705;55.592;37.460;2023-07-31T09:42:55;5.30;;;2.10;;
58294;SDS011;45705;55.592;37.460;2023-07-31T09:45:23;7.00;;;2.00;;
58294;SDS011;45705;55.592;37.460;2023-07-31T09:47:49;3.55;;;1.80;;
58294;SDS011;45705;55.592;37.460;2023-07-31T09:50:14;2.30;;;1.83;;
58294;SDS011;45705;55.592;37.460;2023-07-31T09:52:43;2.25;;;1.83;;
58294;SDS011;45705;55.592;37.460;2023-07-31T09:55:09;7.00;;;1.83;;
58294;SDS011;45705;55.592;37.460;2023-07-31T09:57:45;5.07;;;2.10;;
58294;SDS011;45705;55.592;37.460;2023-07-31T10:00:13;4.60;;;2.30;;
58294;SDS011;45705;55.592;37.460;2023-07-31T10:02:40;4.10;;;2.50;;
58294;SDS011;45705;55.592;37.460;2023-07-31T10:05:08;2.95;;;2.30;;
58294;SDS011;45705;55.592;37.460;2023-07-31T10:07:38;2.70;;;2.10;;
58294;SDS011;45705;55.592;37.460;2023-07-31T10:10:07;3.75;;;2.10;;
58294;SDS011;45705;55.592;37.460;2023-07-31T10:12:36;2.78;;;1.92;;
58294;SDS011;45705;55.592;37.460;2023-07-31T10:15:03;4.28;;;1.90;;
58294;SDS011;45705;55.592;37.460;2023-07-31T10:17:32;2.97;;;1.88;;
58294;SDS011;45705;55.592;37.460;2023-07-31T10:20:01;2.55;;;2.15;;
58294;SDS011;45705;55.592;37.460;2023-07-31T10:22:32;4.10;;;2.08;;
58294;SDS011;45705;55.592;37.460;2023-07-31T10:24:59;3.97;;;2.00;;
58294;SDS011;45705;55.592;37.460;2023-07-31T10:27:26;4.85;;;2.50;;
58294;SDS011;45705;55.592;37.460;2023-07-31T10:29:53;3.50;;;2.13;;
58294;SDS011;45705;55.592;37.460;2023-07-31T10:32:20;7.35;;;2.08;;
58294;SDS011;45705;55.592;37.460;2023-07-31T10:34:48;6.13;;;2.10;;
58294;SDS011;45705;55.592;37.460;2023-07-31T10:37:27;3.30;;;2.00;;
58294;SDS011;45705;55.592;37.460;2023-07-31T10:42:33;3.97;;;2.50;;
58294;SDS011;45705;55.592;37.460;2023-07-31T10:45:02;6.40;;;2.45;;
58294;SDS011;45705;55.592;37.460;2023-07-31T10:47:36;3.65;;;2.13;;
58294;SDS011;45705;55.592;37.460;2023-07-31T10:50:20;5.90;;;2.17;;
58294;SDS011;45705;55.592;37.460;2023-07-31T10:52:50;7.40;;;2.45;;
58294;SDS011;45705;55.592;37.460;2023-07-31T10:55:23;4.00;;;2.10;;
58294;SDS011;45705;55.592;37.460;2023-07-31T10:57:51;5.05;;;2.13;;
58294;SDS011;45705;55.592;37.460;2023-07-31T11:00:39;4.35;;;2.40;;
58294;SDS011;45705;55.592;37.460;2023-07-31T11:03:05;2.17;;;1.98;;
58294;SDS011;45705;55.592;37.460;2023-07-31T11:05:48;3.08;;;1.98;;
58294;SDS011;45705;55.592;37.460;2023-07-31T11:08:22;3.17;;;2.20;;
58294;SDS011;45705;55.592;37.460;2023-07-31T11:10:50;6.63;;;2.40;;
58294;SDS011;45705;55.592;37.460;2023-07-31T11:13:34;5.35;;;2.25;;
58294;SDS011;45705;55.592;37.460;2023-07-31T11:16:04;4.00;;;2.50;;
58294;SDS011;45705;55.592;37.460;2023-07-31T11:18:30;6.82;;;2.30;;
58294;SDS011;45705;55.592;37.460;2023-07-31T11:20:56;2.65;;;2.25;;
58294;SDS011;45705;55.592;37.460;2023-07-31T11:23:22;3.95;;;2.20;;
58294;SDS011;45705;55.592;37.460;2023-07-31T11:25:48;3.00;;;2.10;;
58294;SDS011;45705;55.592;37.460;2023-07-31T11:30:43;3.67;;;2.00;;
58294;SDS011;45705;55.592;37.460;2023-07-31T11:33:10;2.88;;;2.17;;
58294;SDS011;45705;55.592;37.460;2023-07-31T11:35:43;5.13;;;2.28;;
58294;SDS011;45705;55.592;37.460;2023-07-31T11:38:27;3.40;;;2.20;;
58294;SDS011;45705;55.592;37.460;2023-07-31T11:40:55;3.05;;;2.08;;
58294;SDS011;45705;55.592;37.460;2023-07-31T11:43:22;2.35;;;2.13;;
58294;SDS011;45705;55.592;37.460;2023-07-31T11:45:50;5.95;;;2.38;;
58294;SDS011;45705;55.592;37.460;2023-07-31T11:48:24;5.05;;;2.15;;
58294;SDS011;45705;55.592;37.460;2023-07-31T11:50:53;9.05;;;2.30;;
58294;SDS011;45705;55.592;37.460;2023-07-31T11:53:25;6.30;;;2.60;;
58294;SDS011;45705;55.592;37.460;2023-07-31T11:56:16;5.07;;;1.95;;
58294;SDS011;45705;55.592;37.460;2023-07-31T11:58:44;4.72;;;2.20;;
58294;SDS011;45705;55.592;37.460;2023-07-31T12:01:12;5.55;;;1.90;;
58294;SDS011;45705;55.592;37.460;2023-07-31T12:03:40;3.65;;;1.90;;
58294;SDS011;45705;55.592;37.460;2023-07-31T12:06:08;6.67;;;2.40;;
58294;SDS011;45705;55.592;37.460;2023-07-31T12:08:34;6.03;;;2.28;;
58294;SDS011;45705;55.592;37.460;2023-07-31T12:11:02;4.05;;;2.00;;
58294;SDS011;45705;55.592;37.460;2023-07-31T12:13:30;5.43;;;2.35;;
58294;SDS011;45705;55.592;37.460;2023-07-31T12:15:57;8.13;;;2.40;;
58294;SDS011;45705;55.592;37.460;2023-07-31T12:18:25;2.05;;;1.90;;
58294;SDS011;45705;55.592;37.460;2023-07-31T12:20:55;8.32;;;2.30;;
58294;SDS011;45705;55.592;37.460;2023-07-31T12:23:24;4.28;;;1.95;;
58294;SDS011;45705;55.592;37.460;2023-07-31T12:26:13;4.82;;;2.25;;
58294;SDS011;45705;55.592;37.460;2023-07-31T12:28:42;4.72;;;2.10;;
58294;SDS011;45705;55.592;37.460;2023-07-31T12:31:09;4.25;;;2.60;;
58294;SDS011;45705;55.592;37.460;2023-07-31T12:33:37;4.75;;;2.30;;
58294;SDS011;45705;55.592;37.460;2023-07-31T12:36:06;6.05;;;2.38;;
58294;SDS011;45705;55.592;37.460;2023-07-31T12:38:33;6.28;;;2.15;;
58294;SDS011;45705;55.592;37.460;2023-07-31T12:40:59;3.50;;;2.45;;
58294;SDS011;45705;55.592;37.460;2023-07-31T12:43:25;5.05;;;2.28;;
58294;SDS011;45705;55.592;37.460;2023-07-31T12:45:51;2.90;;;2.03;;
58294;SDS011;45705;55.592;37.460;2023-07-31T12:48:17;8.00;;;2.38;;
58294;SDS011;45705;55.592;37.460;2023-07-31T12:50:43;3.97;;;2.10;;
58294;SDS011;45705;55.592;37.460;2023-07-31T12:53:09;6.45;;;2.30;;
58294;SDS011;45705;55.592;37.460;2023-07-31T12:55:35;2.50;;;2.30;;
58294;SDS011;45705;55.592;37.460;2023-07-31T12:58:02;5.60;;;2.45;;
58294;SDS011;45705;55.592;37.460;2023-07-31T13:00:29;4.75;;;2.50;;
58294;SDS011;45705;55.592;37.460;2023-07-31T13:02:55;3.97;;;2.40;;
58294;SDS011;45705;55.592;37.460;2023-07-31T13:05:21;7.20;;;2.72;;
58294;SDS011;45705;55.592;37.460;2023-07-31T13:07:48;3.55;;;2.33;;
58294;SDS011;45705;55.592;37.460;2023-07-31T13:10:14;4.68;;;2.60;;
58294;SDS011;45705;55.592;37.460;2023-07-31T13:12:40;3.00;;;2.50;;
58294;SDS011;45705;55.592;37.460;2023-07-31T13:15:06;5.30;;;2.42;;
58294;SDS011;45705;55.592;37.460;2023-07-31T13:17:33;3.83;;;2.30;;
58294;SDS011;45705;55.592;37.460;2023-07-31T13:19:59;3.42;;;2.50;;
58294;SDS011;45705;55.592;37.460;2023-07-31T13:22:24;5.50;;;2.25;;
58294;SDS011;45705;55.592;37.460;2023-07-31T13:24:51;8.55;;;2.00;;
58294;SDS011;45705;55.592;37.460;2023-07-31T13:27:17;3.63;;;2.47;;
58294;SDS011;45705;55.592;37.460;2023-07-31T13:29:44;8.05;;;2.50;;
58294;SDS011;45705;55.592;37.460;2023-07-31T13:32:11;8.13;;;2.40;;
58294;SDS011;45705;55.592;37.460;2023-07-31T13:34:36;4.28;;;2.25;;
58294;SDS011;45705;55.592;37.460;2023-07-31T13:37:02;3.35;;;2.20;;
58294;SDS011;45705;55.592;37.460;2023-07-31T13:39:28;4.57;;;2.40;;
58294;SDS011;45705;55.592;37.460;2023-07-31T13:41:54;5.90;;;2.58;;
58294;SDS011;45705;55.592;37.460;2023-07-31T13:44:20;5.53;;;2.53;;
58294;SDS011;45705;55.592;37.460;2023-07-31T13:46:46;4.97;;;2.63;;
58294;SDS011;45705;55.592;37.460;2023-07-31T13:49:12;3.10;;;2.30;;
58294;SDS011;45705;55.592;37.460;2023-07-31T13:51:37;3.03;;;2.00;;
58294;SDS011;45705;55.592;37.460;2023-07-31T13:54:04;5.65;;;2.35;;
58294;SDS011;45705;55.592;37.460;2023-07-31T13:56:32;4.82;;;2.30;;
58294;SDS011;45705;55.592;37.460;2023-07-31T13:58:58;4.55;;;2.83;;
58294;SDS011;45705;55.592;37.460;2023-07-31T14:01:25;4.30;;;2.33;;
58294;SDS011;45705;55.592;37.460;2023-07-31T14:03:51;5.57;;;2.53;;
58294;SDS011;45705;55.592;37.460;2023-07-31T14:06:17;4.68;;;2.30;;
58294;SDS011;45705;55.592;37.460;2023-07-31T14:08:43;6.20;;;2.55;;
58294;SDS011;45705;55.592;37.460;2023-07-31T14:11:09;4.00;;;2.47;;
58294;SDS011;45705;55.592;37.460;2023-07-31T14:13:35;4.65;;;2.40;;
58294;SDS011;45705;55.592;37.460;2023-07-31T14:16:00;4.60;;;2.30;;
58294;SDS011;45705;55.592;37.460;2023-07-31T14:18:26;6.70;;;2.30;;
58294;SDS011;45705;55.592;37.460;2023-07-31T14:20:52;4.78;;;2.45;;
58294;SDS011;45705;55.592;37.460;2023-07-31T14:23:18;5.30;;;2.58;;
58294;SDS011;45705;55.592;37.460;2023-07-31T14:25:45;6.70;;;2.92;;
58294;SDS011;45705;55.592;37.460;2023-07-31T14:28:11;4.90;;;2.35;;
58294;SDS011;45705;55.592;37.460;2023-07-31T14:30:37;4.85;;;2.65;;
58294;SDS011;45705;55.592;37.460;2023-07-31T14:33:03;5.28;;;2.42;;
58294;SDS011;45705;55.592;37.460;2023-07-31T14:35:29;3.60;;;2.22;;
58294;SDS011;45705;55.592;37.460;2023-07-31T14:37:55;4.13;;;2.40;;
58294;SDS011;45705;55.592;37.460;2023-07-31T14:40:20;7.68;;;3.35;;
58294;SDS011;45705;55.592;37.460;2023-07-31T14:42:46;6.13;;;2.55;;
58294;SDS011;45705;55.592;37.460;2023-07-31T14:45:12;5.78;;;2.60;;
58294;SDS011;45705;55.592;37.460;2023-07-31T14:47:38;5.10;;;2.45;;
58294;SDS011;45705;55.592;37.460;2023-07-31T14:50:04;3.13;;;2.53;;
58294;SDS011;45705;55.592;37.460;2023-07-31T14:52:30;6.60;;;2.38;;
58294;SDS011;45705;55.592;37.460;2023-07-31T14:54:55;5.18;;;2.78;;